Time;durP1;ratioP1;P1;durP2;ratioP2;P2;SDS_P1;SDS_P2;PMS_P1;PMS_P2;Temp;Humidity;BMP_temperature;BMP_pressure;BME280_temperature;BME280_humidity;BME280_pressure;Samples;Min_cycle;Max_cycle;Signal;HPM_P1;HPM_P2
2022/07/27 00:00:49;;;;;;;5.85;1.52;;;15.60;99.90;;;;;;5056746;28;20503;-75
2022/07/27 00:03:14;;;;;;;5.70;1.13;;;15.60;99.90;;;;;;5071047;28;20056;-75
2022/07/27 00:05:40;;;;;;;4.68;1.70;;;15.50;99.90;;;;;;5056924;28;20025;-75
2022/07/27 00:08:06;;;;;;;2.40;1.25;;;15.50;99.90;;;;;;5064288;28;20025;-75
2022/07/27 00:10:33;;;;;;;6.45;1.40;;;15.50;99.90;;;;;;5063845;28;20024;-75
2022/07/27 00:12:58;;;;;;;5.15;1.30;;;15.50;99.90;;;;;;5070200;28;20437;-75
2022/07/27 00:15:24;;;;;;;2.75;1.10;;;15.40;99.90;;;;;;5070304;28;20102;-75
2022/07/27 00:17:49;;;;;;;4.57;1.25;;;15.40;99.90;;;;;;5070242;28;20066;-74
2022/07/27 00:20:15;;;;;;;4.85;1.30;;;15.40;99.90;;;;;;5070441;28;20024;-75
2022/07/27 00:22:41;;;;;;;8.05;1.70;;;15.40;99.90;;;;;;5070959;28;20431;-74
2022/07/27 00:25:06;;;;;;;5.90;1.30;;;15.40;99.90;;;;;;5070670;28;20059;-75
2022/07/27 00:27:32;;;;;;;3.38;1.20;;;15.40;99.90;;;;;;5070431;28;20399;-75
2022/07/27 00:29:58;;;;;;;5.50;1.20;;;15.30;99.90;;;;;;5070275;28;20090;-75
2022/07/27 00:32:23;;;;;;;3.80;1.33;;;15.40;99.90;;;;;;5052444;28;20032;-76
2022/07/27 00:34:49;;;;;;;5.20;1.27;;;15.40;99.90;;;;;;5070534;28;20023;-75
2022/07/27 00:37:14;;;;;;;5.85;1.25;;;15.30;99.90;;;;;;5051339;28;20025;-75
2022/07/27 00:39:42;;;;;;;8.23;1.65;;;15.30;99.90;;;;;;5061376;28;20410;-75
2022/07/27 00:42:08;;;;;;;3.63;1.45;;;15.30;99.90;;;;;;5070499;28;20039;-76
2022/07/27 00:44:34;;;;;;;9.45;1.10;;;15.30;99.90;;;;;;5071481;28;20025;-74
2022/07/27 00:46:59;;;;;;;5.43;1.33;;;15.20;99.90;;;;;;5074049;28;20016;-74
2022/07/27 00:49:26;;;;;;;4.70;1.45;;;15.20;99.90;;;;;;5072707;28;20380;-75
2022/07/27 00:51:52;;;;;;;4.68;1.40;;;15.10;99.90;;;;;;5070851;28;20025;-75
2022/07/27 00:54:20;;;;;;;7.15;1.42;;;15.20;99.90;;;;;;5070347;28;20463;-74
2022/07/27 00:56:46;;;;;;;3.90;1.48;;;15.20;99.90;;;;;;5070288;28;20063;-74
2022/07/27 00:59:13;;;;;;;5.13;1.40;;;15.10;99.90;;;;;;5055793;28;20033;-75
2022/07/27 01:01:40;;;;;;;3.90;1.20;;;15.10;99.90;;;;;;5070369;28;20103;-74
2022/07/27 01:04:06;;;;;;;3.17;1.20;;;15.10;99.90;;;;;;5067885;28;20032;-74
2022/07/27 01:06:32;;;;;;;5.65;1.20;;;15.10;99.90;;;;;;5058188;28;20093;-74
2022/07/27 01:11:47;;;;;;;2.65;1.00;;;15.00;99.90;;;;;;5069668;28;20499;-74
2022/07/27 01:14:14;;;;;;;5.57;1.27;;;15.10;99.90;;;;;;5070062;28;20036;-74
2022/07/27 01:16:40;;;;;;;3.75;0.98;;;15.10;99.90;;;;;;5070436;28;20021;-74
2022/07/27 01:19:11;;;;;;;4.25;1.05;;;15.00;99.90;;;;;;5070388;28;20031;-74
2022/07/27 01:21:37;;;;;;;5.03;1.17;;;15.00;99.90;;;;;;5056211;28;20048;-75
2022/07/27 01:24:04;;;;;;;5.15;1.42;;;15.00;99.90;;;;;;5057518;28;20393;-76
2022/07/27 01:26:30;;;;;;;4.70;1.10;;;15.00;99.90;;;;;;5053953;28;20013;-74
2022/07/27 01:28:57;;;;;;;5.30;1.25;;;15.00;99.90;;;;;;5073546;28;20024;-74
2022/07/27 01:31:22;;;;;;;8.43;1.30;;;14.90;99.90;;;;;;5061496;28;20104;-74
2022/07/27 01:33:48;;;;;;;7.88;1.13;;;14.90;99.90;;;;;;5058467;28;20443;-74
2022/07/27 01:36:14;;;;;;;3.38;1.08;;;14.90;99.90;;;;;;5073951;28;20594;-75
2022/07/27 01:38:40;;;;;;;4.80;1.30;;;14.80;99.90;;;;;;5070920;28;20095;-75
2022/07/27 01:41:05;;;;;;;3.45;1.40;;;14.80;99.90;;;;;;5062622;28;20479;-74
2022/07/27 01:43:31;;;;;;;5.65;1.30;;;14.80;99.90;;;;;;5073034;28;20028;-75
2022/07/27 01:45:58;;;;;;;4.15;1.40;;;14.80;99.90;;;;;;5067257;28;20021;-75
2022/07/27 01:48:24;;;;;;;6.30;1.30;;;14.70;99.90;;;;;;5066429;28;20565;-75
2022/07/27 01:50:50;;;;;;;2.97;1.23;;;14.70;99.90;;;;;;5075055;28;20039;-75
2022/07/27 01:53:16;;;;;;;2.40;1.00;;;14.70;99.90;;;;;;5074334;28;20031;-75
2022/07/27 01:55:42;;;;;;;9.82;1.40;;;14.70;99.90;;;;;;5055105;28;20427;-75
2022/07/27 01:58:07;;;;;;;6.53;1.20;;;14.70;99.90;;;;;;5073343;28;20078;-74
2022/07/27 02:00:34;;;;;;;3.92;1.20;;;14.70;99.90;;;;;;5073406;28;20427;-75
2022/07/27 02:03:00;;;;;;;3.60;1.17;;;14.60;99.90;;;;;;5073438;28;20086;-75
2022/07/27 02:05:26;;;;;;;4.72;1.20;;;14.60;99.90;;;;;;5073850;28;20037;-74
2022/07/27 02:07:51;;;;;;;2.47;1.10;;;14.60;99.90;;;;;;5073346;28;20046;-74
2022/07/27 02:10:17;;;;;;;3.40;1.20;;;14.60;99.90;;;;;;5073543;28;20021;-74
2022/07/27 02:12:43;;;;;;;1.63;0.93;;;14.60;99.90;;;;;;5060502;28;20016;-75
2022/07/27 02:15:16;;;;;;;5.18;1.20;;;14.50;99.90;;;;;;5073324;28;20029;-75
2022/07/27 02:17:45;;;;;;;3.67;1.13;;;14.50;99.90;;;;;;5071886;28;20441;-75
2022/07/27 02:20:13;;;;;;;5.07;1.17;;;14.50;99.90;;;;;;5072845;28;20039;-75
2022/07/27 02:22:39;;;;;;;2.00;1.15;;;14.50;99.90;;;;;;5073034;28;20115;-75
2022/07/27 02:25:06;;;;;;;5.30;1.15;;;14.50;99.90;;;;;;5072848;28;20417;-74
2022/07/27 02:27:31;;;;;;;2.45;1.20;;;14.40;99.90;;;;;;5072727;28;20131;-75
2022/07/27 02:29:57;;;;;;;3.83;1.10;;;14.40;99.90;;;;;;5072994;28;20091;-75
2022/07/27 02:32:23;;;;;;;4.78;1.17;;;14.40;99.90;;;;;;5054707;28;20024;-74
2022/07/27 02:34:49;;;;;;;4.03;1.13;;;14.40;99.90;;;;;;5072973;28;20032;-75
2022/07/27 02:37:15;;;;;;;2.35;1.10;;;14.30;99.90;;;;;;5058720;28;20021;-74
2022/07/27 02:39:41;;;;;;;5.57;1.20;;;14.40;99.90;;;;;;5071448;28;20064;-75
2022/07/27 02:42:07;;;;;;;2.88;0.90;;;14.30;99.90;;;;;;5072135;28;20476;-75
2022/07/27 02:44:33;;;;;;;2.15;1.10;;;14.30;99.90;;;;;;5072415;28;20056;-75
2022/07/27 02:46:58;;;;;;;5.15;1.23;;;14.30;99.90;;;;;;5060061;28;20107;-74
2022/07/27 02:49:24;;;;;;;4.10;1.20;;;14.30;99.90;;;;;;5066261;28;20019;-74
2022/07/27 02:51:51;;;;;;;1.80;1.05;;;14.30;99.90;;;;;;5062864;28;20099;-75
2022/07/27 02:54:19;;;;;;;2.75;1.10;;;14.30;99.90;;;;;;5072171;28;20028;-75
2022/07/27 02:56:45;;;;;;;4.00;1.30;;;14.30;99.90;;;;;;5063509;28;20045;-75
2022/07/27 02:59:10;;;;;;;3.30;1.20;;;14.30;99.90;;;;;;5066906;28;20110;-75
2022/07/27 03:01:36;;;;;;;6.20;1.20;;;14.30;99.90;;;;;;5072405;28;20023;-75
2022/07/27 03:04:02;;;;;;;4.75;1.30;;;14.30;99.90;;;;;;5072008;28;20029;-76
2022/07/27 03:06:28;;;;;;;4.55;1.23;;;14.30;99.90;;;;;;5073205;28;20362;-74
2022/07/27 03:08:53;;;;;;;3.42;1.25;;;14.30;99.90;;;;;;5054306;28;20029;-75
2022/07/27 03:11:19;;;;;;;4.35;1.20;;;14.30;99.90;;;;;;5071600;28;20044;-74
2022/07/27 03:13:45;;;;;;;3.30;1.08;;;14.40;99.90;;;;;;5072246;28;20089;-75
2022/07/27 03:16:10;;;;;;;4.90;1.10;;;14.40;99.90;;;;;;5072146;28;20024;-75
2022/07/27 03:18:37;;;;;;;4.07;1.20;;;14.40;99.90;;;;;;5052152;28;20096;-75
2022/07/27 03:21:03;;;;;;;4.38;1.30;;;14.50;99.90;;;;;;5046109;28;20094;-74
2022/07/27 03:23:28;;;;;;;2.95;1.10;;;14.50;99.90;;;;;;5071635;28;20021;-76
2022/07/27 03:25:54;;;;;;;4.25;1.15;;;14.60;99.90;;;;;;5071029;28;20096;-75
2022/07/27 03:28:19;;;;;;;2.90;1.00;;;14.60;99.90;;;;;;5071697;28;20075;-75
2022/07/27 03:30:45;;;;;;;3.17;1.20;;;14.70;99.90;;;;;;5071697;28;20379;-75
2022/07/27 03:33:10;;;;;;;5.40;1.10;;;14.70;99.90;;;;;;5071513;28;20551;-74
2022/07/27 03:35:36;;;;;;;4.68;1.02;;;14.80;99.90;;;;;;5057511;28;20073;-76
2022/07/27 03:38:02;;;;;;;3.20;0.98;;;14.80;99.90;;;;;;5060202;28;20028;-75
2022/07/27 03:40:30;;;;;;;3.17;1.10;;;14.80;99.90;;;;;;5068537;28;20048;-76
2022/07/27 03:42:56;;;;;;;4.38;1.20;;;14.90;99.90;;;;;;5072334;28;20029;-76
2022/07/27 03:45:22;;;;;;;3.13;1.13;;;14.90;99.90;;;;;;5060653;28;20032;-75
2022/07/27 03:47:47;;;;;;;1.95;1.10;;;14.90;99.90;;;;;;5072723;28;20468;-75
2022/07/27 03:50:13;;;;;;;6.50;1.30;;;14.90;99.90;;;;;;5071660;28;20407;-76
2022/07/27 03:52:38;;;;;;;5.35;1.30;;;15.00;99.90;;;;;;5071417;28;20027;-76
2022/07/27 03:55:05;;;;;;;4.00;1.05;;;15.00;99.90;;;;;;5069350;28;20036;-75
2022/07/27 03:57:30;;;;;;;6.40;1.05;;;15.00;99.90;;;;;;5071064;28;20388;-76
2022/07/27 03:59:56;;;;;;;3.15;1.10;;;15.10;99.90;;;;;;5071602;28;20028;-76
2022/07/27 04:02:21;;;;;;;5.00;1.25;;;15.10;99.90;;;;;;5052900;28;20040;-76
2022/07/27 04:04:47;;;;;;;4.68;1.10;;;15.10;99.90;;;;;;5071208;28;20353;-76
2022/07/27 04:07:12;;;;;;;4.57;1.20;;;15.10;99.90;;;;;;5071232;28;20017;-76
2022/07/27 04:09:38;;;;;;;6.85;1.13;;;15.10;99.90;;;;;;5060209;28;20051;-76
2022/07/27 04:12:04;;;;;;;3.53;1.08;;;15.10;99.90;;;;;;5071064;28;20029;-76
2022/07/27 04:14:29;;;;;;;6.88;1.42;;;15.10;99.90;;;;;;5070905;28;20024;-75
2022/07/27 04:16:55;;;;;;;4.97;1.10;;;15.10;99.90;;;;;;5052817;28;20028;-76
2022/07/27 04:19:21;;;;;;;3.53;1.10;;;15.10;99.90;;;;;;5056862;28;20029;-75
2022/07/27 04:21:46;;;;;;;3.22;1.00;;;15.10;99.90;;;;;;5070669;28;20044;-76
2022/07/27 04:24:12;;;;;;;6.35;1.15;;;15.20;99.90;;;;;;5070131;28;20028;-76
2022/07/27 04:26:37;;;;;;;4.70;1.02;;;15.10;99.90;;;;;;5070549;28;20070;-77
2022/07/27 04:29:03;;;;;;;2.38;0.90;;;15.20;99.90;;;;;;5063374;28;20555;-76
2022/07/27 04:31:29;;;;;;;3.42;1.15;;;15.20;99.90;;;;;;5063782;28;20024;-76
2022/07/27 04:33:54;;;;;;;4.82;1.00;;;15.20;99.90;;;;;;5070530;28;20051;-76
2022/07/27 04:36:20;;;;;;;6.03;1.40;;;15.20;99.90;;;;;;5059337;28;20028;-75
2022/07/27 04:38:45;;;;;;;2.28;1.15;;;15.30;99.90;;;;;;5067399;28;20020;-76
2022/07/27 04:41:11;;;;;;;4.95;1.40;;;15.30;99.90;;;;;;5070774;28;20025;-76
2022/07/27 04:43:37;;;;;;;5.35;1.20;;;15.30;99.90;;;;;;5070890;28;20033;-76
2022/07/27 04:46:03;;;;;;;2.42;0.93;;;15.40;99.90;;;;;;5070567;28;20017;-76
2022/07/27 04:48:32;;;;;;;4.13;1.30;;;15.40;99.90;;;;;;5070344;28;20029;-76
2022/07/27 04:50:58;;;;;;;1.50;1.00;;;15.40;99.90;;;;;;5070564;28;20472;-75
2022/07/27 04:53:23;;;;;;;8.20;1.40;;;15.50;99.90;;;;;;5070059;28;20055;-75
2022/07/27 04:55:49;;;;;;;4.88;0.90;;;15.50;99.90;;;;;;5070196;28;20111;-76
2022/07/27 04:58:15;;;;;;;6.13;1.15;;;15.50;99.90;;;;;;5070277;28;20036;-76
2022/07/27 05:00:42;;;;;;;3.15;1.13;;;15.50;99.90;;;;;;5070418;28;20020;-76
2022/07/27 05:03:08;;;;;;;4.03;1.27;;;15.50;99.90;;;;;;5072940;28;20117;-76
2022/07/27 05:05:34;;;;;;;4.57;1.30;;;15.60;99.90;;;;;;5074668;28;20031;-76
2022/07/27 05:08:00;;;;;;;6.00;1.50;;;15.50;99.90;;;;;;5074015;28;20472;-76
2022/07/27 05:10:25;;;;;;;5.18;1.30;;;15.50;99.90;;;;;;5074810;28;20115;-76
2022/07/27 05:12:51;;;;;;;6.85;1.40;;;15.50;99.90;;;;;;5060441;28;20012;-76
2022/07/27 05:15:17;;;;;;;4.82;1.00;;;15.50;99.90;;;;;;5074592;28;20233;-76
2022/07/27 05:17:42;;;;;;;5.63;1.25;;;15.60;99.90;;;;;;5074298;28;20086;-78
2022/07/27 05:20:09;;;;;;;5.47;1.65;;;15.60;99.90;;;;;;5074484;28;20017;-77
2022/07/27 05:22:34;;;;;;;5.72;1.48;;;15.60;99.90;;;;;;5073684;28;20126;-76
2022/07/27 05:25:00;;;;;;;7.05;1.30;;;15.70;99.90;;;;;;5060101;28;20485;-78
2022/07/27 05:27:26;;;;;;;3.17;1.20;;;15.70;99.90;;;;;;5074299;28;20025;-76
2022/07/27 05:29:52;;;;;;;7.93;1.67;;;15.80;99.90;;;;;;5074110;28;20040;-76
2022/07/27 05:32:17;;;;;;;5.60;1.65;;;15.80;99.90;;;;;;5060005;28;20478;-77
2022/07/27 05:34:44;;;;;;;4.55;1.40;;;15.90;99.90;;;;;;5074384;28;20021;-76
2022/07/27 05:37:13;;;;;;;4.28;1.50;;;16.00;99.90;;;;;;5073892;28;20020;-77
2022/07/27 05:39:41;;;;;;;5.57;1.70;;;16.00;99.90;;;;;;5073235;28;20479;-76
2022/07/27 05:42:07;;;;;;;4.95;1.48;;;16.00;99.90;;;;;;5071137;28;20039;-76
2022/07/27 05:44:33;;;;;;;2.97;1.27;;;16.00;99.90;;;;;;5062638;28;20043;-76
2022/07/27 05:46:58;;;;;;;5.15;1.40;;;16.10;99.90;;;;;;5073809;28;20476;-76
2022/07/27 05:49:24;;;;;;;5.32;1.45;;;16.10;99.90;;;;;;5073731;28;20035;-76
2022/07/27 05:51:50;;;;;;;6.22;1.48;;;16.10;99.90;;;;;;5073676;28;20028;-75
2022/07/27 05:54:15;;;;;;;7.10;1.58;;;16.10;99.90;;;;;;5060092;28;20054;-76
2022/07/27 05:56:41;;;;;;;6.07;1.40;;;16.00;99.90;;;;;;5073574;28;20495;-75
2022/07/27 05:59:07;;;;;;;6.10;1.35;;;16.00;99.90;;;;;;5073409;28;20032;-75
2022/07/27 06:01:32;;;;;;;5.47;1.40;;;15.90;99.90;;;;;;5073797;28;20025;-75
2022/07/27 06:03:58;;;;;;;6.72;1.67;;;15.90;99.90;;;;;;5073533;28;20539;-75
2022/07/27 06:09:08;;;;;;;5.75;1.45;;;15.90;99.90;;;;;;5072313;28;20043;-76
2022/07/27 06:11:34;;;;;;;6.30;1.88;;;15.90;99.90;;;;;;5073527;28;20025;-75
2022/07/27 06:13:59;;;;;;;5.10;1.50;;;15.90;99.90;;;;;;5060055;28;20024;-75
2022/07/27 06:16:25;;;;;;;6.78;1.80;;;15.90;99.90;;;;;;5072850;28;20091;-75
2022/07/27 06:18:50;;;;;;;4.85;1.50;;;15.90;99.90;;;;;;5062012;28;20524;-75
2022/07/27 06:21:16;;;;;;;6.20;1.95;;;15.90;99.90;;;;;;5056514;28;20149;-75
2022/07/27 06:23:42;;;;;;;4.60;1.67;;;15.90;99.90;;;;;;5072866;28;20032;-76
2022/07/27 06:26:08;;;;;;;8.43;1.92;;;15.90;99.90;;;;;;5073320;28;20016;-77
2022/07/27 06:28:33;;;;;;;5.68;1.48;;;15.90;99.90;;;;;;5073180;28;20416;-75
2022/07/27 06:30:59;;;;;;;8.13;1.73;;;15.90;99.90;;;;;;5072998;28;20021;-74
2022/07/27 06:33:27;;;;;;;7.93;1.75;;;16.00;99.90;;;;;;5071844;28;20036;-76
2022/07/27 06:35:58;;;;;;;4.75;1.70;;;16.00;99.90;;;;;;5060536;28;20417;-75
2022/07/27 06:38:25;;;;;;;8.82;2.05;;;16.10;99.90;;;;;;5072775;28;20403;-75
2022/07/27 06:40:51;;;;;;;4.90;1.77;;;16.10;99.90;;;;;;5059362;28;20055;-75
2022/07/27 06:43:22;;;;;;;8.18;1.65;;;16.10;99.90;;;;;;5073803;28;20044;-76
2022/07/27 06:45:48;;;;;;;3.40;1.63;;;16.10;99.90;;;;;;5059074;28;20330;-75
2022/07/27 06:48:14;;;;;;;5.55;1.50;;;16.10;99.90;;;;;;5072836;28;20070;-75
2022/07/27 06:50:40;;;;;;;6.03;1.52;;;16.20;99.90;;;;;;5058555;28;20028;-75
2022/07/27 06:53:05;;;;;;;5.22;1.67;;;16.20;99.90;;;;;;5072035;28;20033;-78
2022/07/27 06:55:31;;;;;;;8.05;1.63;;;16.20;99.90;;;;;;5072234;28;20112;-76
2022/07/27 06:57:56;;;;;;;5.50;1.40;;;16.20;99.90;;;;;;5072556;28;20020;-76
2022/07/27 07:00:23;;;;;;;6.22;1.33;;;16.30;99.90;;;;;;5072227;28;20035;-75
2022/07/27 07:02:51;;;;;;;5.30;1.38;;;16.30;99.90;;;;;;5072368;28;20107;-75
2022/07/27 07:05:17;;;;;;;5.63;1.55;;;16.40;99.90;;;;;;5072199;28;20063;-75
2022/07/27 07:07:42;;;;;;;8.23;1.73;;;16.40;99.90;;;;;;5071486;28;20484;-76
2022/07/27 07:10:08;;;;;;;7.00;1.70;;;16.50;99.90;;;;;;5072035;28;20059;-76
2022/07/27 07:12:34;;;;;;;7.05;1.80;;;16.50;99.90;;;;;;5071881;28;20027;-75
2022/07/27 07:14:59;;;;;;;6.50;1.48;;;16.50;99.90;;;;;;5064435;28;20013;-76
2022/07/27 07:17:25;;;;;;;5.50;1.50;;;16.60;99.90;;;;;;5065395;28;20517;-75
2022/07/27 07:19:50;;;;;;;5.40;1.55;;;16.70;99.90;;;;;;5072341;28;20443;-76
2022/07/27 07:22:16;;;;;;;3.90;1.40;;;16.80;99.90;;;;;;5071359;28;20138;-77
2022/07/27 07:24:41;;;;;;;7.63;1.52;;;16.80;99.90;;;;;;5071054;28;20054;-76
2022/07/27 07:27:07;;;;;;;8.50;1.50;;;16.90;99.90;;;;;;5071886;28;20031;-75
2022/07/27 07:29:32;;;;;;;7.70;1.52;;;17.00;99.90;;;;;;5071886;28;20067;-76
2022/07/27 07:31:58;;;;;;;4.18;1.55;;;17.10;99.90;;;;;;5071646;28;20103;-75
2022/07/27 07:34:24;;;;;;;5.22;1.60;;;17.10;99.90;;;;;;5071501;28;20039;-76
2022/07/27 07:36:49;;;;;;;5.45;1.40;;;17.20;99.90;;;;;;5071251;28;20396;-77
2022/07/27 07:39:16;;;;;;;4.28;1.42;;;17.20;99.90;;;;;;5062755;28;20044;-75
2022/07/27 07:41:41;;;;;;;6.03;1.60;;;17.20;99.90;;;;;;5066496;28;20504;-76
2022/07/27 07:44:08;;;;;;;5.10;1.52;;;17.30;99.90;;;;;;5071441;28;20033;-75
2022/07/27 07:46:35;;;;;;;3.75;1.50;;;17.40;99.90;;;;;;5071564;28;20021;-76
2022/07/27 07:49:01;;;;;;;4.22;1.38;;;17.50;99.90;;;;;;5071453;28;20016;-76
2022/07/27 07:51:27;;;;;;;4.70;1.30;;;17.60;99.90;;;;;;5071110;28;20052;-75
2022/07/27 07:53:53;;;;;;;4.05;1.30;;;17.80;99.90;;;;;;5071573;28;20058;-75
2022/07/27 07:56:18;;;;;;;7.53;1.40;;;17.90;99.90;;;;;;5071563;28;20025;-75
2022/07/27 07:58:44;;;;;;;6.35;1.30;;;18.10;99.90;;;;;;5071131;28;20108;-75
2022/07/27 08:01:11;;;;;;;4.60;1.27;;;18.30;99.90;;;;;;5071190;28;20027;-76
2022/07/27 08:03:37;;;;;;;5.95;1.55;;;18.50;99.90;;;;;;5058206;28;20025;-77
2022/07/27 08:06:02;;;;;;;5.35;1.35;;;18.70;99.90;;;;;;5070288;28;20028;-75
2022/07/27 08:08:29;;;;;;;4.88;1.15;;;18.90;99.90;;;;;;5071212;28;20046;-76
2022/07/27 08:10:55;;;;;;;2.97;1.02;;;19.00;99.90;;;;;;5071233;28;20021;-76
2022/07/27 08:13:21;;;;;;;6.32;1.40;;;19.10;99.90;;;;;;5070990;28;20028;-75
2022/07/27 08:15:46;;;;;;;5.20;1.15;;;19.20;99.90;;;;;;5070686;28;20554;-75
2022/07/27 08:18:12;;;;;;;4.30;1.10;;;19.40;99.90;;;;;;5070783;28;20024;-75
2022/07/27 08:20:37;;;;;;;3.60;1.00;;;19.50;99.90;;;;;;5070133;28;20093;-75
2022/07/27 08:23:03;;;;;;;4.97;1.30;;;19.60;99.90;;;;;;5070741;28;20480;-76
2022/07/27 08:25:30;;;;;;;4.38;1.02;;;19.70;99.90;;;;;;5070672;28;20028;-75
2022/07/27 08:27:56;;;;;;;4.43;1.00;;;19.80;99.90;;;;;;5070669;28;20029;-76
2022/07/27 08:30:22;;;;;;;3.58;1.10;;;19.90;99.90;;;;;;5057001;28;20031;-76
2022/07/27 08:32:59;;;;;;;5.70;1.33;;;20.10;99.90;;;;;;5070889;28;20036;-75
2022/07/27 08:35:27;;;;;;;2.22;1.00;;;20.30;99.90;;;;;;5066582;28;20024;-75
2022/07/27 08:37:54;;;;;;;5.45;0.95;;;20.40;99.90;;;;;;5060113;28;20044;-75
2022/07/27 08:40:19;;;;;;;3.17;0.90;;;20.40;99.90;;;;;;5070458;28;20070;-76
2022/07/27 08:42:45;;;;;;;8.40;1.00;;;20.60;99.90;;;;;;5070417;28;20032;-76
2022/07/27 08:45:17;;;;;;;6.15;1.08;;;20.70;99.90;;;;;;5070642;28;20036;-76
2022/07/27 08:47:44;;;;;;;2.80;0.90;;;20.80;99.90;;;;;;5070416;28;20017;-75
2022/07/27 08:50:24;;;;;;;5.00;0.98;;;21.10;99.90;;;;;;5070551;28;20028;-75
2022/07/27 08:52:54;;;;;;;3.80;1.20;;;21.40;99.90;;;;;;5057614;28;20033;-76
2022/07/27 08:55:22;;;;;;;3.85;1.00;;;21.70;99.30;;;;;;5070769;28;20048;-77
2022/07/27 08:57:48;;;;;;;2.78;0.63;;;21.70;98.40;;;;;;5064332;28;20016;-75
2022/07/27 09:00:14;;;;;;;4.05;0.82;;;21.70;97.00;;;;;;5062150;28;20476;-76
2022/07/27 09:02:41;;;;;;;1.88;0.75;;;21.70;95.70;;;;;;5070168;28;20050;-75
2022/07/27 09:05:08;;;;;;;3.88;1.02;;;21.50;95.10;;;;;;5070243;28;20427;-76
2022/07/27 09:07:34;;;;;;;3.60;0.90;;;21.40;95.40;;;;;;5070246;28;20024;-76
2022/07/27 09:09:59;;;;;;;5.85;1.10;;;21.50;94.60;;;;;;5070967;28;20629;-77
2022/07/27 09:12:29;;;;;;;6.22;1.05;;;21.60;93.80;;;;;;5069968;28;20115;-74
2022/07/27 09:15:11;;;;;;;4.35;0.90;;;21.70;93.00;;;;;;5070228;28;20024;-75
2022/07/27 09:17:38;;;;;;;4.28;1.00;;;21.80;92.40;;;;;;5069015;28;20037;-75
2022/07/27 09:20:10;;;;;;;3.20;0.80;;;22.00;92.80;;;;;;5070020;28;20070;-76
2022/07/27 09:22:54;;;;;;;3.95;0.82;;;22.30;92.50;;;;;;5070348;28;20071;-75
2022/07/27 09:25:22;;;;;;;3.38;0.85;;;22.40;90.30;;;;;;5070314;28;20093;-76
2022/07/27 09:27:52;;;;;;;1.65;0.60;;;22.20;90.80;;;;;;5069775;28;20159;-76
2022/07/27 09:30:20;;;;;;;3.28;0.80;;;22.00;90.10;;;;;;5069918;28;20016;-75
2022/07/27 09:33:03;;;;;;;5.00;1.08;;;21.80;89.50;;;;;;5041925;28;20028;-75
2022/07/27 09:35:34;;;;;;;4.72;1.15;;;21.50;90.10;;;;;;5074289;28;20025;-77
2022/07/27 09:38:20;;;;;;;5.10;0.80;;;21.30;90.50;;;;;;5092829;28;20025;-77
2022/07/27 09:40:47;;;;;;;3.35;1.00;;;20.90;90.40;;;;;;5077853;28;20025;-76
2022/07/27 09:43:13;;;;;;;3.72;1.00;;;20.80;90.90;;;;;;5080523;28;20082;-76
2022/07/27 09:45:44;;;;;;;4.88;0.93;;;20.70;91.10;;;;;;5069348;28;20108;-76
2022/07/27 09:48:15;;;;;;;6.03;1.10;;;20.60;91.10;;;;;;5070806;28;20051;-75
2022/07/27 09:50:58;;;;;;;5.03;0.90;;;20.60;91.60;;;;;;5073931;28;20039;-75
2022/07/27 09:53:26;;;;;;;3.40;0.85;;;20.60;91.50;;;;;;5073695;28;20549;-75
2022/07/27 09:56:02;;;;;;;3.15;1.10;;;20.60;91.80;;;;;;5073657;28;20017;-75
2022/07/27 09:58:43;;;;;;;3.28;1.05;;;20.70;92.30;;;;;;5073235;28;20411;-76
2022/07/27 10:01:19;;;;;;;3.90;1.00;;;20.80;93.00;;;;;;5073460;28;20495;-75
2022/07/27 10:03:46;;;;;;;4.68;1.00;;;21.00;92.70;;;;;;5073305;28;20380;-76
2022/07/27 10:06:12;;;;;;;4.68;1.13;;;21.10;92.40;;;;;;5073367;28;20424;-76
2022/07/27 10:08:40;;;;;;;3.10;0.90;;;21.30;92.40;;;;;;5073301;28;20031;-76
2022/07/27 10:11:06;;;;;;;5.57;0.90;;;21.50;92.10;;;;;;5073303;28;20099;-76
2022/07/27 10:13:33;;;;;;;5.32;0.88;;;21.60;91.20;;;;;;5063739;28;20109;-74
2022/07/27 10:16:00;;;;;;;3.17;1.00;;;21.60;91.00;;;;;;5068485;28;20025;-76
2022/07/27 10:18:52;;;;;;;3.63;1.00;;;21.60;91.10;;;;;;5073483;28;20061;-75
2022/07/27 10:21:19;;;;;;;3.70;0.95;;;21.70;90.30;;;;;;5073023;28;20041;-74
2022/07/27 10:24:22;;;;;;;2.22;0.60;;;21.70;86.60;;;;;;5072886;28;20500;-74
2022/07/27 10:26:48;;;;;;;2.05;0.70;;;21.50;86.30;;;;;;5072942;28;20039;-75
2022/07/27 10:29:15;;;;;;;4.97;1.20;;;21.40;87.10;;;;;;5072761;28;20028;-74
2022/07/27 10:31:54;;;;;;;5.32;1.10;;;21.40;88.40;;;;;;5071784;28;20020;-75
2022/07/27 10:34:35;;;;;;;4.80;0.90;;;21.50;89.30;;;;;;5061922;28;20094;-76
2022/07/27 10:37:31;;;;;;;6.07;0.90;;;21.60;89.70;;;;;;5058644;28;20020;-74
2022/07/27 10:43:04;;;;;;;4.07;0.90;;;21.70;89.80;;;;;;5072566;28;20043;-76
2022/07/27 10:45:39;;;;;;;3.25;0.73;;;21.60;88.00;;;;;;5071468;28;20017;-75
2022/07/27 10:48:05;;;;;;;2.42;0.80;;;21.60;87.00;;;;;;5062513;28;20020;-75
2022/07/27 10:50:31;;;;;;;2.90;0.90;;;21.70;87.80;;;;;;5072354;28;20020;-75
2022/07/27 10:53:00;;;;;;;3.10;1.00;;;21.90;86.60;;;;;;5072338;28;20032;-74
2022/07/27 10:55:29;;;;;;;3.20;1.10;;;22.00;86.00;;;;;;5072486;28;20108;-75
2022/07/27 10:58:14;;;;;;;2.55;0.80;;;22.10;85.70;;;;;;5072237;28;20016;-75
2022/07/27 11:00:49;;;;;;;2.15;0.88;;;22.20;83.60;;;;;;5070235;28;20024;-76
2022/07/27 11:03:34;;;;;;;2.47;0.80;;;22.40;84.00;;;;;;5063574;28;20505;-75
2022/07/27 11:06:01;;;;;;;4.53;1.02;;;22.40;81.40;;;;;;5070117;28;20556;-75
2022/07/27 11:08:31;;;;;;;2.38;0.70;;;22.20;82.30;;;;;;5072187;28;20403;-75
2022/07/27 11:10:59;;;;;;;2.33;0.82;;;22.10;81.80;;;;;;5072248;28;20029;-76
2022/07/27 11:13:26;;;;;;;2.05;0.90;;;22.00;82.90;;;;;;5072164;28;20515;-76
2022/07/27 11:15:57;;;;;;;3.45;0.80;;;21.90;82.90;;;;;;5071361;28;20029;-75
2022/07/27 11:18:36;;;;;;;3.75;0.80;;;21.80;83.10;;;;;;5072033;28;20025;-76
2022/07/27 11:21:35;;;;;;;2.22;0.90;;;21.80;83.50;;;;;;5071952;28;20068;-76
2022/07/27 11:24:12;;;;;;;2.38;0.90;;;21.80;82.80;;;;;;5056169;28;20037;-75
2022/07/27 11:26:41;;;;;;;2.35;0.80;;;21.60;82.90;;;;;;5071906;28;20028;-75
2022/07/27 11:29:08;;;;;;;3.63;0.70;;;21.50;83.10;;;;;;5071925;28;20086;-76
2022/07/27 11:31:36;;;;;;;4.55;0.95;;;21.30;82.70;;;;;;5071389;28;20052;-75
2022/07/27 11:34:02;;;;;;;2.35;0.70;;;21.30;81.90;;;;;;5071714;28;20035;-76
2022/07/27 11:36:51;;;;;;;3.83;1.10;;;21.30;82.50;;;;;;5071501;28;20067;-75
2022/07/27 11:39:24;;;;;;;4.22;0.90;;;21.40;83.70;;;;;;5059120;28;20040;-76
2022/07/27 11:41:53;;;;;;;3.75;1.10;;;21.40;83.00;;;;;;5057037;28;20025;-75
2022/07/27 11:44:19;;;;;;;1.73;0.75;;;21.20;83.80;;;;;;5058415;28;20403;-76
2022/07/27 11:46:46;;;;;;;3.08;0.98;;;21.20;84.00;;;;;;5071430;28;20103;-76
2022/07/27 11:49:19;;;;;;;2.85;1.17;;;21.30;84.00;;;;;;5066355;28;20025;-75
2022/07/27 11:51:47;;;;;;;3.35;0.90;;;21.40;83.90;;;;;;5063894;28;20114;-75
2022/07/27 11:54:27;;;;;;;3.10;0.60;;;21.60;84.10;;;;;;5071353;28;20048;-75
2022/07/27 11:57:00;;;;;;;3.10;0.80;;;21.90;82.60;;;;;;5053360;28;20058;-75
2022/07/27 11:59:28;;;;;;;6.38;0.95;;;22.00;82.00;;;;;;5070423;28;20062;-75
2022/07/27 12:02:18;;;;;;;2.58;0.80;;;22.10;81.40;;;;;;5059932;28;20032;-75
2022/07/27 12:04:46;;;;;;;2.90;0.98;;;22.20;79.80;;;;;;5059497;28;20013;-76
2022/07/27 12:07:26;;;;;;;2.72;0.88;;;22.20;79.50;;;;;;5071883;28;20377;-76
2022/07/27 12:09:54;;;;;;;4.28;1.20;;;22.20;78.10;;;;;;5042538;28;20024;-75
2022/07/27 12:12:25;;;;;;;3.38;1.00;;;22.10;79.90;;;;;;5059541;28;20025;-75
2022/07/27 12:14:56;;;;;;;4.55;1.00;;;22.00;79.00;;;;;;5044874;28;20025;-76
2022/07/27 12:17:30;;;;;;;10.18;1.10;;;22.00;79.30;;;;;;5072324;28;20024;-76
2022/07/27 12:20:10;;;;;;;6.03;1.10;;;22.10;80.00;;;;;;5058748;28;20016;-75
2022/07/27 12:22:42;;;;;;;3.70;1.00;;;22.30;78.70;;;;;;5073776;28;20040;-77
2022/07/27 12:25:17;;;;;;;6.85;1.20;;;22.30;78.00;;;;;;5059210;28;20013;-75
2022/07/27 12:28:13;;;;;;;4.32;1.15;;;22.30;78.40;;;;;;5073776;28;20531;-75
2022/07/27 12:30:39;;;;;;;;;;;22.20;78.60;;;;;;5052699;28;20032;-75
2022/07/27 12:33:26;;;;;;;4.43;1.00;;;22.30;79.60;;;;;;5083583;28;19905;-77
2022/07/27 12:35:52;;;;;;;3.58;1.00;;;22.40;79.80;;;;;;5076031;28;20024;-76
2022/07/27 12:38:18;;;;;;;3.53;1.13;;;22.50;80.10;;;;;;5073968;28;20012;-75
2022/07/27 12:40:47;;;;;;;3.13;0.90;;;22.50;79.10;;;;;;5071999;28;20021;-75
2022/07/27 12:43:16;;;;;;;3.10;1.00;;;22.60;78.50;;;;;;5071119;28;20017;-76
2022/07/27 12:45:42;;;;;;;4.80;1.00;;;22.70;78.30;;;;;;5071019;28;20305;-77
2022/07/27 12:48:18;;;;;;;4.47;0.93;;;22.80;77.50;;;;;;5072037;28;20043;-75
2022/07/27 12:50:46;;;;;;;2.90;0.95;;;22.80;76.90;;;;;;5071604;28;20020;-76
2022/07/27 12:53:13;;;;;;;4.60;1.20;;;22.90;77.10;;;;;;5071524;28;20559;-75
2022/07/27 12:55:40;;;;;;;3.88;0.80;;;23.00;76.90;;;;;;5057097;28;20034;-75
2022/07/27 12:58:12;;;;;;;4.22;1.00;;;23.10;77.00;;;;;;5071189;28;20033;-76
2022/07/27 13:00:39;;;;;;;3.90;1.00;;;23.10;75.70;;;;;;5070808;28;20056;-76